Time;durP1;ratioP1;P1;durP2;ratioP2;P2;SDS_P1;SDS_P2;PMS_P1;PMS_P2;Temp;Humidity;BMP_temperature;BMP_pressure;BME280_temperature;BME280_humidity;BME280_pressure;Samples;Min_cycle;Max_cycle;Signal;HPM_P1;HPM_P2
2023/04/27 00:01:39;;;;;;;0.10;0.10;;;5.50;99.90;;;;;;5020305;28;20133;-64
2023/04/27 00:04:05;;;;;;;0.10;0.10;;;5.50;99.90;;;;;;5016213;28;20034;-64
2023/04/27 00:06:31;;;;;;;0.20;0.20;;;5.40;99.90;;;;;;5011642;28;20085;-64
2023/04/27 00:08:58;;;;;;;0.10;0.10;;;5.40;99.90;;;;;;5018114;28;20136;-64
2023/04/27 00:11:23;;;;;;;0.00;0.00;;;5.40;99.90;;;;;;5021926;28;20402;-65
2023/04/27 00:13:49;;;;;;;0.80;0.80;;;5.40;99.90;;;;;;5019955;28;20041;-64
2023/04/27 00:16:14;;;;;;;0.50;0.50;;;5.40;99.90;;;;;;5026001;28;20041;-64
2023/04/27 00:18:41;;;;;;;0.10;0.10;;;5.40;99.90;;;;;;5020874;28;20048;-64
2023/04/27 00:21:08;;;;;;;0.20;0.20;;;5.40;99.90;;;;;;5014618;28;20080;-64
2023/04/27 00:23:33;;;;;;;0.10;0.10;;;5.40;99.90;;;;;;5017574;28;20148;-64
2023/04/27 00:25:59;;;;;;;0.10;0.10;;;5.40;99.90;;;;;;5017942;28;21019;-64
2023/04/27 00:28:25;;;;;;;0.10;0.10;;;5.30;99.90;;;;;;5019399;28;20057;-64
2023/04/27 00:30:53;;;;;;;0.95;0.95;;;5.20;99.90;;;;;;5017984;28;20042;-64
2023/04/27 00:33:19;;;;;;;0.20;0.20;;;5.20;99.90;;;;;;5011501;28;20046;-64
2023/04/27 00:35:44;;;;;;;0.10;0.10;;;5.20;99.90;;;;;;5013758;28;20042;-64
2023/04/27 00:38:11;;;;;;;0.10;0.10;;;5.20;99.90;;;;;;5028146;28;20397;-64
2023/04/27 00:40:37;;;;;;;0.15;0.15;;;5.20;99.90;;;;;;5025835;28;20056;-64
2023/04/27 00:43:02;;;;;;;0.00;0.00;;;5.40;99.90;;;;;;5019970;28;20497;-64
2023/04/27 00:45:28;;;;;;;0.47;0.47;;;5.40;99.90;;;;;;5021776;28;20037;-64
2023/04/27 00:47:54;;;;;;;0.32;0.32;;;5.40;99.90;;;;;;5024937;28;20033;-64
2023/04/27 00:50:27;;;;;;;0.05;0.05;;;5.40;99.90;;;;;;5024799;28;20044;-64
2023/04/27 00:52:53;;;;;;;0.15;0.15;;;5.40;99.90;;;;;;5015758;28;20112;-64
2023/04/27 00:55:19;;;;;;;0.50;0.50;;;5.40;99.90;;;;;;5020927;28;20125;-64
2023/04/27 00:57:44;;;;;;;0.10;0.10;;;5.40;99.90;;;;;;5016042;28;20037;-64
2023/04/27 01:00:12;;;;;;;0.10;0.10;;;5.40;99.90;;;;;;5022475;28;20050;-64
2023/04/27 01:02:38;;;;;;;0.22;0.22;;;5.30;99.90;;;;;;5023333;28;20048;-64
2023/04/27 01:05:04;;;;;;;0.40;0.40;;;5.20;99.90;;;;;;5016279;28;20089;-64
2023/04/27 01:07:30;;;;;;;0.10;0.10;;;5.10;99.90;;;;;;5025246;28;20045;-64
2023/04/27 01:09:55;;;;;;;0.17;0.17;;;5.10;99.90;;;;;;5025409;28;20049;-64
2023/04/27 01:12:21;;;;;;;0.10;0.10;;;5.10;99.90;;;;;;5021675;28;20052;-64
2023/04/27 01:14:46;;;;;;;1.25;0.85;;;5.00;99.90;;;;;;5018368;28;20041;-64
2023/04/27 01:17:13;;;;;;;0.40;0.40;;;5.00;99.90;;;;;;5019388;28;20038;-64
2023/04/27 01:19:39;;;;;;;0.10;0.10;;;4.90;99.90;;;;;;5027496;28;20049;-64
2023/04/27 01:22:07;;;;;;;0.75;0.65;;;4.90;99.90;;;;;;5018713;28;20516;-64
2023/04/27 01:24:32;;;;;;;0.45;0.40;;;4.90;99.90;;;;;;5024957;28;20428;-64
2023/04/27 01:26:58;;;;;;;0.10;0.10;;;4.90;99.90;;;;;;5027220;28;20113;-64
2023/04/27 01:29:23;;;;;;;0.10;0.10;;;5.00;99.90;;;;;;5011368;28;20132;-64
2023/04/27 01:31:49;;;;;;;0.20;0.20;;;5.00;99.90;;;;;;5020720;28;20037;-64
2023/04/27 01:34:14;;;;;;;0.10;0.10;;;5.10;99.90;;;;;;5018800;28;20053;-64
2023/04/27 01:36:40;;;;;;;0.10;0.10;;;5.10;99.90;;;;;;5026308;28;20768;-64
2023/04/27 01:39:08;;;;;;;0.10;0.10;;;5.00;99.90;;;;;;5018936;28;20048;-64
2023/04/27 01:41:36;;;;;;;0.10;0.10;;;5.10;99.90;;;;;;5016326;28;20041;-64
2023/04/27 01:44:02;;;;;;;0.10;0.10;;;5.20;99.90;;;;;;5013450;28;20099;-64
2023/04/27 01:46:28;;;;;;;0.00;0.00;;;5.30;99.90;;;;;;5014775;28;20125;-64
2023/04/27 01:48:53;;;;;;;3.60;0.80;;;5.30;99.90;;;;;;5022656;28;20527;-64
2023/04/27 01:51:19;;;;;;;0.43;0.30;;;5.30;99.90;;;;;;5018536;28;20057;-64
2023/04/27 01:53:45;;;;;;;0.00;0.00;;;5.40;99.90;;;;;;5021220;28;20046;-64
2023/04/27 01:56:10;;;;;;;0.15;0.15;;;5.40;99.90;;;;;;5020708;28;20050;-64
2023/04/27 01:58:36;;;;;;;0.10;0.10;;;5.50;99.90;;;;;;5023531;28;20033;-64
2023/04/27 02:01:02;;;;;;;0.10;0.10;;;5.50;99.90;;;;;;5028828;28;20046;-64
2023/04/27 02:03:27;;;;;;;0.10;0.10;;;5.50;99.90;;;;;;5018063;28;20046;-64
2023/04/27 02:05:53;;;;;;;0.32;0.32;;;5.40;99.90;;;;;;5023409;28;20061;-64
2023/04/27 02:08:19;;;;;;;0.10;0.10;;;5.40;99.90;;;;;;5029781;28;20060;-64
2023/04/27 02:10:44;;;;;;;0.08;0.08;;;5.50;99.90;;;;;;5025586;28;20052;-64
2023/04/27 02:13:10;;;;;;;1.40;1.35;;;5.70;99.90;;;;;;5020074;28;20065;-64
2023/04/27 02:15:35;;;;;;;0.00;0.00;;;5.70;99.90;;;;;;5024692;28;20052;-64
2023/04/27 02:18:02;;;;;;;0.63;0.63;;;5.60;99.90;;;;;;5017986;28;20132;-64
2023/04/27 02:20:31;;;;;;;0.10;0.10;;;5.70;99.90;;;;;;5019415;28;20045;-64
2023/04/27 02:22:57;;;;;;;0.13;0.13;;;5.70;99.90;;;;;;5014064;28;20061;-64
2023/04/27 02:25:23;;;;;;;0.10;0.10;;;5.80;99.90;;;;;;5025915;28;20516;-64
2023/04/27 02:27:48;;;;;;;0.32;0.32;;;5.80;99.90;;;;;;5014009;28;20038;-64
2023/04/27 02:30:14;;;;;;;0.17;0.17;;;5.90;99.90;;;;;;5013559;28;20096;-64
2023/04/27 02:32:40;;;;;;;0.00;0.00;;;5.90;99.90;;;;;;5020615;28;20041;-64
2023/04/27 02:35:06;;;;;;;0.10;0.10;;;5.90;99.90;;;;;;5020221;28;20041;-64
2023/04/27 02:37:33;;;;;;;0.43;0.43;;;5.90;99.90;;;;;;5023396;28;20044;-64
2023/04/27 02:39:58;;;;;;;0.00;0.00;;;5.90;99.90;;;;;;5020477;28;20493;-64
2023/04/27 02:42:24;;;;;;;0.05;0.05;;;5.90;99.90;;;;;;5030407;28;20060;-64
2023/04/27 02:44:50;;;;;;;0.10;0.10;;;6.00;99.90;;;;;;5020232;28;20045;-64
2023/04/27 02:47:15;;;;;;;0.00;0.00;;;6.00;99.90;;;;;;5021002;28;20061;-64
2023/04/27 02:49:41;;;;;;;0.10;0.10;;;5.90;99.90;;;;;;5021065;28;20042;-64
2023/04/27 02:52:07;;;;;;;0.10;0.10;;;5.90;99.90;;;;;;5019031;28;20045;-64
2023/04/27 02:54:33;;;;;;;0.05;0.05;;;5.90;99.90;;;;;;5028866;28;20061;-64
2023/04/27 02:56:58;;;;;;;2.13;1.15;;;5.80;99.90;;;;;;5014537;28;20092;-64
2023/04/27 02:59:24;;;;;;;0.20;0.20;;;5.70;99.90;;;;;;5021062;28;20041;-64
2023/04/27 03:01:50;;;;;;;0.20;0.20;;;5.60;99.90;;;;;;5026853;28;20087;-64
2023/04/27 03:04:16;;;;;;;0.20;0.20;;;5.60;99.90;;;;;;5022234;28;20132;-64
2023/04/27 03:06:45;;;;;;;0.20;0.20;;;5.70;99.90;;;;;;5018067;28;20042;-64
2023/04/27 03:09:11;;;;;;;0.00;0.00;;;5.70;99.90;;;;;;5013911;28;20046;-64
2023/04/27 03:11:37;;;;;;;0.10;0.10;;;5.70;99.90;;;;;;5023810;28;20076;-64
2023/04/27 03:14:03;;;;;;;0.43;0.40;;;5.60;99.90;;;;;;5023908;28;20386;-64
2023/04/27 03:16:31;;;;;;;0.73;0.65;;;5.60;99.90;;;;;;5022316;28;20037;-64
2023/04/27 03:18:57;;;;;;;0.00;0.00;;;5.60;99.90;;;;;;5021822;28;20041;-64
2023/04/27 03:21:22;;;;;;;0.10;0.10;;;5.60;99.90;;;;;;5018221;28;20540;-64
2023/04/27 03:23:48;;;;;;;0.10;0.10;;;5.60;99.90;;;;;;5016043;28;20073;-64
2023/04/27 03:26:14;;;;;;;0.10;0.10;;;5.50;99.90;;;;;;5026450;28;20045;-64
2023/04/27 03:28:40;;;;;;;0.15;0.15;;;5.40;99.90;;;;;;5014458;28;20077;-64
2023/04/27 03:31:07;;;;;;;0.10;0.10;;;5.30;99.90;;;;;;5024606;28;20064;-64
2023/04/27 03:33:33;;;;;;;0.20;0.20;;;5.30;99.90;;;;;;5030456;28;20045;-64
2023/04/27 03:35:59;;;;;;;0.38;0.38;;;5.40;99.90;;;;;;5028139;28;20239;-64
2023/04/27 03:38:26;;;;;;;0.10;0.10;;;5.30;99.90;;;;;;5023263;28;20582;-64
2023/04/27 03:40:52;;;;;;;1.75;0.43;;;5.30;99.90;;;;;;5022022;28;20055;-64
2023/04/27 03:43:19;;;;;;;0.10;0.10;;;5.30;99.90;;;;;;5020332;28;20141;-64
2023/04/27 03:45:45;;;;;;;0.43;0.38;;;5.20;99.90;;;;;;5012388;28;20033;-64
2023/04/27 03:48:10;;;;;;;0.10;0.10;;;5.20;99.90;;;;;;5027934;28;20136;-64
2023/04/27 03:50:36;;;;;;;0.40;0.40;;;5.10;99.90;;;;;;5022499;28;20046;-64
2023/04/27 03:53:02;;;;;;;0.20;0.20;;;5.10;99.90;;;;;;5010711;28;20159;-64
2023/04/27 03:55:28;;;;;;;0.10;0.10;;;5.10;99.90;;;;;;5018599;28;20045;-64
2023/04/27 03:57:53;;;;;;;0.10;0.10;;;5.10;99.90;;;;;;5023963;28;20040;-64
2023/04/27 04:00:19;;;;;;;0.10;0.10;;;5.00;99.90;;;;;;5023632;28;20041;-64
2023/04/27 04:02:45;;;;;;;0.10;0.10;;;5.00;99.90;;;;;;5024258;28;20482;-64
2023/04/27 04:05:13;;;;;;;0.03;0.03;;;4.90;99.90;;;;;;5023307;28;20077;-64
2023/04/27 04:07:42;;;;;;;0.10;0.10;;;4.90;99.90;;;;;;5019511;28;20049;-63
2023/04/27 04:10:09;;;;;;;0.13;0.13;;;4.80;99.90;;;;;;5026763;28;20080;-64
2023/04/27 04:12:34;;;;;;;1.42;1.33;;;4.80;99.90;;;;;;5012215;28;20045;-64
2023/04/27 04:15:00;;;;;;;0.10;0.10;;;4.80;99.90;;;;;;5015260;28;20061;-64
2023/04/27 04:17:26;;;;;;;0.70;0.57;;;4.80;99.90;;;;;;5022449;28;20094;-64
2023/04/27 04:19:52;;;;;;;0.10;0.10;;;4.80;99.90;;;;;;5008874;28;20509;-64
2023/04/27 04:22:17;;;;;;;0.10;0.10;;;4.80;99.90;;;;;;5018273;28;20041;-64
2023/04/27 04:24:43;;;;;;;0.20;0.20;;;4.80;99.90;;;;;;5023699;28;20046;-64
2023/04/27 04:27:08;;;;;;;0.10;0.10;;;4.80;99.90;;;;;;5017472;28;20510;-64
2023/04/27 04:29:34;;;;;;;0.10;0.10;;;4.80;99.90;;;;;;5017508;28;20042;-64
2023/04/27 04:32:00;;;;;;;0.20;0.20;;;4.80;99.90;;;;;;5012753;28;20132;-64
2023/04/27 04:34:26;;;;;;;0.10;0.10;;;4.80;99.90;;;;;;5020340;28;20401;-64
2023/04/27 04:36:51;;;;;;;0.10;0.10;;;4.70;99.90;;;;;;5015562;28;20049;-64
2023/04/27 04:39:21;;;;;;;0.00;0.00;;;4.80;99.90;;;;;;5015056;28;20038;-64
2023/04/27 04:41:48;;;;;;;0.10;0.10;;;4.70;99.90;;;;;;5012770;28;20406;-64
2023/04/27 04:44:16;;;;;;;0.10;0.10;;;4.70;99.90;;;;;;5018440;28;20094;-64
2023/04/27 04:46:42;;;;;;;0.90;0.85;;;4.70;99.90;;;;;;5020345;28;20038;-64
2023/04/27 04:49:08;;;;;;;0.70;0.70;;;4.70;99.90;;;;;;5018102;28;20175;-64
2023/04/27 04:51:34;;;;;;;1.00;1.00;;;4.60;99.90;;;;;;5010793;28;20049;-64
2023/04/27 04:54:00;;;;;;;0.28;0.28;;;4.60;99.90;;;;;;5023082;28;20137;-64
2023/04/27 04:56:25;;;;;;;0.10;0.10;;;4.70;99.90;;;;;;5022415;28;20056;-64
2023/04/27 04:58:51;;;;;;;0.20;0.20;;;4.70;99.90;;;;;;5025932;28;20041;-64
2023/04/27 05:01:17;;;;;;;0.00;0.00;;;4.70;99.90;;;;;;5015715;28;20037;-64
2023/04/27 05:03:42;;;;;;;0.10;0.10;;;4.70;99.90;;;;;;5024043;28;20404;-64
2023/04/27 05:06:08;;;;;;;0.10;0.10;;;4.80;99.90;;;;;;5025954;28;20033;-64
2023/04/27 05:08:34;;;;;;;3.00;0.95;;;4.80;99.90;;;;;;5017693;28;20176;-64
2023/04/27 05:11:00;;;;;;;0.10;0.10;;;4.80;99.90;;;;;;5016979;28;20053;-64
2023/04/27 05:13:26;;;;;;;0.10;0.10;;;4.90;99.90;;;;;;5024575;28;20136;-64
2023/04/27 05:15:51;;;;;;;0.10;0.10;;;5.10;99.90;;;;;;5025199;28;20038;-64
2023/04/27 05:18:17;;;;;;;0.10;0.10;;;5.20;99.90;;;;;;5016578;28;20156;-64
2023/04/27 05:20:43;;;;;;;0.22;0.22;;;5.30;99.90;;;;;;5023873;28;20057;-64
2023/04/27 05:23:09;;;;;;;0.17;0.17;;;5.30;99.90;;;;;;5031192;28;20068;-64
2023/04/27 05:25:40;;;;;;;0.10;0.10;;;5.40;99.90;;;;;;5024548;28;20041;-64
2023/04/27 05:28:09;;;;;;;0.17;0.17;;;5.50;99.90;;;;;;5021327;28;20053;-64
2023/04/27 05:30:35;;;;;;;0.10;0.10;;;5.50;99.90;;;;;;5029820;28;20048;-64
2023/04/27 05:33:02;;;;;;;0.10;0.10;;;5.60;99.90;;;;;;5021771;28;20041;-64
2023/04/27 05:35:28;;;;;;;0.10;0.10;;;5.70;99.90;;;;;;5021246;28;20048;-64
2023/04/27 05:37:53;;;;;;;0.10;0.10;;;5.70;99.90;;;;;;5031217;28;20485;-64
2023/04/27 05:40:19;;;;;;;0.10;0.10;;;5.70;99.90;;;;;;5021519;28;20049;-64
2023/04/27 05:42:48;;;;;;;0.20;0.20;;;5.80;99.90;;;;;;5023119;28;20038;-64
2023/04/27 05:45:13;;;;;;;0.10;0.10;;;5.90;99.90;;;;;;5027333;28;20524;-64
2023/04/27 05:47:39;;;;;;;0.10;0.10;;;5.90;99.90;;;;;;5048731;28;20037;-64
2023/04/27 05:50:05;;;;;;;0.63;0.63;;;6.00;99.90;;;;;;5014975;28;20049;-64
2023/04/27 05:52:31;;;;;;;0.10;0.10;;;6.10;99.90;;;;;;5026002;28;20085;-64
2023/04/27 05:54:57;;;;;;;0.10;0.10;;;6.10;99.90;;;;;;5027824;28;20473;-64
2023/04/27 05:57:24;;;;;;;0.10;0.10;;;6.20;99.90;;;;;;5017234;28;20524;-64
2023/04/27 05:59:50;;;;;;;0.00;0.00;;;6.20;99.90;;;;;;5018402;28;20044;-64
2023/04/27 06:02:16;;;;;;;0.30;0.30;;;6.30;99.90;;;;;;5023371;28;20095;-64
2023/04/27 06:04:42;;;;;;;0.30;0.30;;;6.30;99.90;;;;;;5018435;28;20521;-64
2023/04/27 06:07:08;;;;;;;0.10;0.10;;;6.30;99.90;;;;;;5017608;28;20046;-64
2023/04/27 06:09:34;;;;;;;0.10;0.10;;;6.40;99.90;;;;;;5022472;28;20448;-64
2023/04/27 06:12:01;;;;;;;0.10;0.10;;;6.40;99.90;;;;;;5012874;28;20041;-64
2023/04/27 06:14:27;;;;;;;1.15;1.05;;;6.40;99.90;;;;;;5023612;28;20056;-64
2023/04/27 06:16:53;;;;;;;0.20;0.20;;;6.50;99.90;;;;;;5026304;28;20152;-64
2023/04/27 06:19:18;;;;;;;0.10;0.10;;;6.60;99.90;;;;;;5023403;28;20141;-64
2023/04/27 06:21:44;;;;;;;0.10;0.10;;;6.60;99.90;;;;;;5019815;28;20041;-64
2023/04/27 06:24:09;;;;;;;0.10;0.10;;;6.70;99.90;;;;;;5016571;28;20053;-64
2023/04/27 06:26:35;;;;;;;0.10;0.10;;;6.80;99.90;;;;;;5024865;28;20785;-64
2023/04/27 06:29:02;;;;;;;0.10;0.10;;;6.80;99.90;;;;;;5036986;28;20507;-64
2023/04/27 06:31:28;;;;;;;0.10;0.10;;;6.90;99.90;;;;;;5021102;28;20056;-64
2023/04/27 06:33:54;;;;;;;0.10;0.10;;;7.00;99.90;;;;;;5024002;28;20037;-64
2023/04/27 06:36:20;;;;;;;0.20;0.20;;;7.00;99.90;;;;;;5010965;28;20046;-64
2023/04/27 06:38:46;;;;;;;0.10;0.10;;;7.10;99.90;;;;;;5015117;28;20050;-65
2023/04/27 06:41:11;;;;;;;0.20;0.20;;;7.10;99.90;;;;;;5030013;28;20406;-64
2023/04/27 06:43:37;;;;;;;0.10;0.10;;;7.20;99.90;;;;;;5031457;28;20042;-64
2023/04/27 06:46:03;;;;;;;0.13;0.13;;;7.20;99.90;;;;;;5027394;28;20045;-64
2023/04/27 06:48:29;;;;;;;0.10;0.10;;;7.30;99.90;;;;;;5021917;28;20071;-64
2023/04/27 06:50:55;;;;;;;0.10;0.10;;;7.30;99.90;;;;;;5024939;28;20046;-65
2023/04/27 06:53:21;;;;;;;0.47;0.47;;;7.40;99.90;;;;;;5016967;28;20417;-64
2023/04/27 06:55:46;;;;;;;0.10;0.10;;;7.40;99.90;;;;;;5017814;28;20042;-64
2023/04/27 06:58:12;;;;;;;0.22;0.22;;;7.50;99.90;;;;;;5019422;28;20046;-65
2023/04/27 07:00:37;;;;;;;0.40;0.40;;;7.50;99.90;;;;;;5021821;28;20071;-64
2023/04/27 07:03:03;;;;;;;0.10;0.10;;;7.50;99.90;;;;;;5025219;28;20087;-65
2023/04/27 07:05:28;;;;;;;0.55;0.55;;;7.60;99.90;;;;;;5011687;28;20061;-65
2023/04/27 07:07:54;;;;;;;0.20;0.20;;;7.60;99.90;;;;;;5027834;28;20045;-64
2023/04/27 07:10:20;;;;;;;0.10;0.10;;;7.70;99.90;;;;;;5029620;28;20053;-64
2023/04/27 07:12:45;;;;;;;0.85;0.85;;;7.80;99.90;;;;;;5023503;28;20037;-64
2023/04/27 07:15:11;;;;;;;0.10;0.10;;;7.80;99.90;;;;;;5022357;28;20439;-64
2023/04/27 07:17:36;;;;;;;0.10;0.10;;;7.90;99.90;;;;;;5030586;28;20040;-64
2023/04/27 07:20:05;;;;;;;0.35;0.35;;;7.90;99.90;;;;;;5019545;28;20052;-65
2023/04/27 07:22:32;;;;;;;1.15;1.08;;;8.10;99.90;;;;;;5022701;28;20206;-64
2023/04/27 07:24:57;;;;;;;0.13;0.13;;;8.10;99.90;;;;;;5013801;28;20065;-64
2023/04/27 07:27:23;;;;;;;0.20;0.20;;;8.10;99.90;;;;;;5027646;28;20033;-64
2023/04/27 07:29:49;;;;;;;0.10;0.10;;;8.10;99.90;;;;;;5011213;28;20061;-64
2023/04/27 07:32:14;;;;;;;0.35;0.35;;;8.10;99.90;;;;;;5030051;28;20442;-64
2023/04/27 07:34:40;;;;;;;0.10;0.10;;;8.20;99.90;;;;;;5030170;28;20041;-64
2023/04/27 07:37:06;;;;;;;0.10;0.10;;;8.20;99.90;;;;;;5017244;28;20413;-64
2023/04/27 07:39:32;;;;;;;1.45;1.30;;;8.30;99.90;;;;;;5023971;28;20057;-64
2023/04/27 07:41:58;;;;;;;0.32;0.32;;;8.40;99.90;;;;;;5016924;28;20063;-64
2023/04/27 07:44:24;;;;;;;0.10;0.10;;;8.40;99.90;;;;;;5023556;28;20052;-64
2023/04/27 07:46:52;;;;;;;0.10;0.10;;;8.40;99.90;;;;;;5013902;28;20052;-64
2023/04/27 07:49:18;;;;;;;1.52;0.80;;;8.50;99.90;;;;;;5023121;28;20041;-64
2023/04/27 07:51:44;;;;;;;0.08;0.08;;;8.50;99.90;;;;;;5010000;28;20058;-64
2023/04/27 07:54:10;;;;;;;0.35;0.35;;;8.60;99.90;;;;;;5022220;28;20041;-64
2023/04/27 07:56:35;;;;;;;0.10;0.10;;;8.60;99.90;;;;;;5012026;28;20042;-64
2023/04/27 07:59:01;;;;;;;0.10;0.10;;;8.60;99.90;;;;;;5023725;28;20460;-64
2023/04/27 08:01:27;;;;;;;0.10;0.10;;;8.70;99.90;;;;;;5010985;28;20038;-64
2023/04/27 08:03:52;;;;;;;0.10;0.10;;;8.70;99.90;;;;;;5023396;28;20045;-64
2023/04/27 08:06:18;;;;;;;0.10;0.10;;;8.70;99.90;;;;;;5028238;28;20077;-64
2023/04/27 08:08:43;;;;;;;0.10;0.10;;;8.80;99.90;;;;;;5024931;28;20045;-64
2023/04/27 08:11:10;;;;;;;0.10;0.10;;;8.80;99.90;;;;;;5021367;28;20104;-64
2023/04/27 08:13:36;;;;;;;0.10;0.10;;;8.90;99.90;;;;;;5028525;28;20038;-65
2023/04/27 08:16:02;;;;;;;0.20;0.20;;;8.90;99.90;;;;;;5029892;28;20045;-64
2023/04/27 08:18:28;;;;;;;0.00;0.00;;;8.90;99.90;;;;;;5012103;28;20379;-65
2023/04/27 08:20:54;;;;;;;0.00;0.00;;;8.90;99.90;;;;;;5019667;28;20042;-65
2023/04/27 08:23:20;;;;;;;2.00;1.45;;;9.00;99.90;;;;;;5029844;28;20046;-64
2023/04/27 08:25:46;;;;;;;0.10;0.10;;;9.00;99.90;;;;;;5022203;28;20497;-64
2023/04/27 08:28:13;;;;;;;0.10;0.10;;;9.20;99.90;;;;;;5015150;28;20080;-64
2023/04/27 08:30:41;;;;;;;0.10;0.10;;;9.20;99.90;;;;;;5028292;28;20045;-64
2023/04/27 08:33:07;;;;;;;0.10;0.10;;;9.40;99.90;;;;;;5020866;28;20050;-63
2023/04/27 08:35:33;;;;;;;0.00;0.00;;;9.60;99.90;;;;;;5017838;28;20037;-63
2023/04/27 08:37:58;;;;;;;0.00;0.00;;;9.70;99.90;;;;;;5029018;28;20041;-63
2023/04/27 08:40:24;;;;;;;0.10;0.10;;;10.00;99.90;;;;;;5018669;28;20045;-63
2023/04/27 08:42:57;;;;;;;1.25;1.15;;;10.30;99.90;;;;;;5011832;28;21751;-63
2023/04/27 08:45:25;;;;;;;0.10;0.10;;;10.60;99.90;;;;;;5033327;28;20488;-63
2023/04/27 08:47:51;;;;;;;0.10;0.10;;;10.70;99.90;;;;;;5025593;28;20064;-63
2023/04/27 08:50:17;;;;;;;0.00;0.00;;;11.00;99.90;;;;;;5016787;28;20393;-63
2023/04/27 08:52:44;;;;;;;0.10;0.10;;;11.20;99.90;;;;;;5020293;28;20502;-63
2023/04/27 08:55:09;;;;;;;2.08;1.45;;;11.70;99.90;;;;;;5013586;28;20401;-63
2023/04/27 08:57:35;;;;;;;0.15;0.15;;;12.10;99.90;;;;;;5026728;28;20045;-63
2023/04/27 09:00:11;;;;;;;0.80;0.80;;;12.40;99.90;;;;;;5026015;28;20164;-63
2023/04/27 09:02:36;;;;;;;0.30;0.30;;;12.70;99.90;;;;;;5025968;28;20052;-63
2023/04/27 09:05:03;;;;;;;0.85;0.57;;;12.80;99.90;;;;;;5016763;28;20045;-63
2023/04/27 09:07:28;;;;;;;1.10;0.98;;;13.10;99.90;;;;;;5026053;28;20085;-63
2023/04/27 09:10:04;;;;;;;0.10;0.10;;;13.20;99.90;;;;;;5021956;28;20078;-64
2023/04/27 09:12:29;;;;;;;0.10;0.10;;;13.50;99.90;;;;;;5016063;28;20049;-64
2023/04/27 09:15:00;;;;;;;0.10;0.10;;;13.70;99.90;;;;;;5022711;28;20052;-63
2023/04/27 09:17:27;;;;;;;0.15;0.15;;;13.90;99.90;;;;;;5026527;28;20041;-63
2023/04/27 09:20:07;;;;;;;0.52;0.45;;;13.80;99.90;;;;;;5022170;28;20046;-63
2023/04/27 09:22:46;;;;;;;0.30;0.30;;;13.70;99.30;;;;;;5028508;28;20413;-64
2023/04/27 09:25:30;;;;;;;0.10;0.10;;;13.50;98.70;;;;;;5031809;28;20187;-64
2023/04/27 09:27:56;;;;;;;1.45;0.68;;;13.50;99.70;;;;;;5023053;28;20033;-63
2023/04/27 09:30:23;;;;;;;0.10;0.10;;;13.60;99.30;;;;;;5029420;28;20045;-63
2023/04/27 09:32:56;;;;;;;0.15;0.15;;;13.70;98.80;;;;;;5028765;28;20111;-63
2023/04/27 09:35:28;;;;;;;0.17;0.17;;;13.70;98.70;;;;;;5031924;28;20049;-63
2023/04/27 09:37:54;;;;;;;0.10;0.10;;;13.90;99.90;;;;;;5011704;28;20042;-63
2023/04/27 09:40:28;;;;;;;2.17;0.75;;;14.10;99.70;;;;;;5024910;28;20042;-63
2023/04/27 09:43:00;;;;;;;0.60;0.50;;;13.90;98.90;;;;;;5026295;28;20401;-64
2023/04/27 09:45:26;;;;;;;0.00;0.00;;;14.00;97.90;;;;;;5013240;28;20121;-63
2023/04/27 09:47:52;;;;;;;0.00;0.00;;;14.20;99.40;;;;;;5026876;28;20053;-63
2023/04/27 09:50:18;;;;;;;0.10;0.10;;;14.40;99.50;;;;;;5033474;28;20124;-63
2023/04/27 09:52:45;;;;;;;0.10;0.10;;;14.20;97.30;;;;;;5016453;28;20455;-63
2023/04/27 09:55:23;;;;;;;0.20;0.20;;;14.30;98.40;;;;;;5031934;28;20046;-64
2023/04/27 09:58:19;;;;;;;0.03;0.03;;;14.10;96.90;;;;;;5027165;28;20088;-63
2023/04/27 10:00:56;;;;;;;0.80;0.35;;;13.90;96.80;;;;;;5008653;28;20053;-63
2023/04/27 10:03:26;;;;;;;0.20;0.20;;;14.00;97.70;;;;;;5025000;28;20125;-64
2023/04/27 10:06:25;;;;;;;0.10;0.10;;;13.80;96.80;;;;;;5030370;28;20049;-64
2023/04/27 10:08:51;;;;;;;0.43;0.40;;;13.80;98.30;;;;;;5023199;28;20081;-65
2023/04/27 10:11:21;;;;;;;0.10;0.10;;;13.90;98.90;;;;;;5021225;28;20084;-63
2023/04/27 10:13:54;;;;;;;0.65;0.65;;;13.90;97.20;;;;;;5018470;28;20085;-63
2023/04/27 10:16:20;;;;;;;0.20;0.20;;;13.80;98.10;;;;;;5021004;28;20394;-63
2023/04/27 10:18:54;;;;;;;8.07;1.00;;;13.90;98.10;;;;;;5032221;28;20071;-64
2023/04/27 10:21:20;;;;;;;0.10;0.10;;;13.70;97.10;;;;;;5025950;28;20081;-63
2023/04/27 10:23:48;;;;;;;0.05;0.05;;;13.60;97.70;;;;;;5026202;28;20045;-64
2023/04/27 10:26:22;;;;;;;0.20;0.20;;;13.70;98.50;;;;;;5028528;28;20117;-64
2023/04/27 10:29:08;;;;;;;0.10;0.10;;;13.50;98.30;;;;;;5021285;28;20045;-64
2023/04/27 10:31:33;;;;;;;0.10;0.10;;;13.50;98.90;;;;;;5025565;28;20082;-64
2023/04/27 10:34:10;;;;;;;0.73;0.22;;;13.60;99.70;;;;;;5025038;28;20614;-65
2023/04/27 10:36:39;;;;;;;0.10;0.10;;;13.40;98.50;;;;;;5029888;28;20056;-64
2023/04/27 10:39:21;;;;;;;1.65;1.17;;;13.30;98.60;;;;;;5021486;28;20509;-65
2023/04/27 10:41:54;;;;;;;0.10;0.10;;;13.10;98.70;;;;;;5016795;28;20134;-65
2023/04/27 10:44:30;;;;;;;0.10;0.10;;;13.00;99.90;;;;;;5027352;28;20049;-64
2023/04/27 10:47:00;;;;;;;0.45;0.40;;;13.00;99.40;;;;;;5020356;28;20046;-64
2023/04/27 10:49:30;;;;;;;0.00;0.00;;;13.00;99.40;;;;;;5034375;28;20075;-66
2023/04/27 10:52:01;;;;;;;0.10;0.10;;;13.00;98.30;;;;;;5026926;28;20046;-65
2023/04/27 10:54:28;;;;;;;0.00;0.00;;;13.10;97.70;;;;;;5019242;28;20053;-65
2023/04/27 10:57:00;;;;;;;0.08;0.08;;;12.90;98.30;;;;;;5033744;28;20041;-65
2023/04/27 10:59:26;;;;;;;0.10;0.10;;;13.00;99.90;;;;;;5014173;28;21615;-63
2023/04/27 11:01:52;;;;;;;0.10;0.10;;;13.10;98.10;;;;;;5010470;28;20030;-65
2023/04/27 11:04:18;;;;;;;0.98;0.90;;;13.10;97.40;;;;;;5017782;28;20048;-65
2023/04/27 11:06:45;;;;;;;4.18;1.38;;;13.10;97.20;;;;;;5023912;28;20041;-65
2023/04/27 11:09:12;;;;;;;0.15;0.15;;;13.10;97.60;;;;;;5014723;28;20724;-65
2023/04/27 11:11:42;;;;;;;0.10;0.10;;;13.50;99.40;;;;;;5020821;28;20125;-65
2023/04/27 11:14:07;;;;;;;0.00;0.00;;;14.00;98.60;;;;;;5016331;28;20037;-65
2023/04/27 11:16:33;;;;;;;0.10;0.10;;;13.90;97.40;;;;;;5016569;28;20429;-65
2023/04/27 11:19:05;;;;;;;4.38;1.48;;;14.10;99.90;;;;;;5017568;28;20118;-65
2023/04/27 11:21:31;;;;;;;0.10;0.10;;;13.80;98.90;;;;;;5029893;28;20044;-65
2023/04/27 11:24:06;;;;;;;0.10;0.10;;;13.50;97.70;;;;;;5020018;28;20041;-65
2023/04/27 11:26:32;;;;;;;0.10;0.10;;;13.40;97.20;;;;;;5020263;28;20061;-65
2023/04/27 11:29:08;;;;;;;0.30;0.30;;;13.20;97.20;;;;;;5020209;28;20481;-65
2023/04/27 11:31:42;;;;;;;0.68;0.28;;;13.00;97.00;;;;;;5016267;28;20049;-67
2023/04/27 11:34:09;;;;;;;8.38;0.73;;;12.90;97.00;;;;;;5027321;28;20131;-65
2023/04/27 11:36:35;;;;;;;0.10;0.10;;;12.90;98.30;;;;;;5026348;28;20049;-65
2023/04/27 11:39:00;;;;;;;0.10;0.10;;;12.70;98.60;;;;;;5014947;28;20434;-64
2023/04/27 11:41:36;;;;;;;0.10;0.10;;;12.60;98.70;;;;;;5025562;28;20029;-65
2023/04/27 11:44:06;;;;;;;0.75;0.68;;;12.50;98.50;;;;;;5021456;28;20042;-65
2023/04/27 11:46:35;;;;;;;0.00;0.00;;;12.50;99.20;;;;;;5017596;28;20052;-64
2023/04/27 11:49:05;;;;;;;0.10;0.10;;;12.50;98.60;;;;;;5024721;28;20045;-64
2023/04/27 11:51:38;;;;;;;0.10;0.10;;;12.60;99.90;;;;;;5021243;28;20049;-65
2023/04/27 11:54:06;;;;;;;0.33;0.27;;;12.70;99.90;;;;;;5014179;28;20409;-65
2023/04/27 11:56:41;;;;;;;0.38;0.38;;;12.80;99.10;;;;;;5012115;28;20490;-65
2023/04/27 11:59:21;;;;;;;0.30;0.17;;;12.70;98.90;;;;;;5025240;28;20130;-65
2023/04/27 12:01:47;;;;;;;0.10;0.10;;;12.80;98.40;;;;;;5012147;28;20046;-64
2023/04/27 12:04:13;;;;;;;0.10;0.10;;;12.70;98.00;;;;;;5016968;28;20048;-63
2023/04/27 12:06:39;;;;;;;0.10;0.10;;;12.80;98.70;;;;;;5017531;28;20175;-65
2023/04/27 12:09:05;;;;;;;0.10;0.10;;;12.90;99.90;;;;;;5015346;28;20041;-65
2023/04/27 12:11:31;;;;;;;1.15;0.98;;;13.10;99.30;;;;;;5008306;28;20117;-62
2023/04/27 12:13:57;;;;;;;0.00;0.00;;;12.90;99.00;;;;;;5008534;28;20894;-64
2023/04/27 12:16:23;;;;;;;0.03;0.03;;;13.00;99.90;;;;;;5015242;28;20129;-63
2023/04/27 12:18:51;;;;;;;0.60;0.60;;;13.10;98.40;;;;;;5018124;28;20103;-64
2023/04/27 12:21:17;;;;;;;0.10;0.10;;;13.00;97.70;;;;;;5017270;28;20053;-64
2023/04/27 12:23:43;;;;;;;0.00;0.00;;;13.00;97.60;;;;;;5015198;28;20045;-65
2023/04/27 12:26:09;;;;;;;0.22;0.22;;;13.00;97.50;;;;;;5021848;28;20069;-65
2023/04/27 12:28:36;;;;;;;0.15;0.15;;;13.30;98.00;;;;;;5026195;28;20111;-65
2023/04/27 12:31:05;;;;;;;0.85;0.85;;;13.60;97.40;;;;;;5014759;28;20378;-65
2023/04/27 12:33:31;;;;;;;0.10;0.10;;;13.40;96.30;;;;;;5019632;28;20489;-65
2023/04/27 12:35:56;;;;;;;0.10;0.10;;;13.20;97.00;;;;;;5033941;28;20040;-65
2023/04/27 12:38:22;;;;;;;0.10;0.10;;;13.30;98.10;;;;;;5022335;28;20095;-65
2023/04/27 12:40:48;;;;;;;0.05;0.05;;;13.30;97.30;;;;;;5025475;28;20045;-63
2023/04/27 12:43:14;;;;;;;0.55;0.50;;;13.00;97.00;;;;;;5014739;28;20041;-63
2023/04/27 12:45:40;;;;;;;0.10;0.10;;;13.00;97.40;;;;;;5024484;28;20139;-63
2023/04/27 12:48:06;;;;;;;0.22;0.22;;;13.00;97.00;;;;;;5018765;28;20056;-63
2023/04/27 12:50:33;;;;;;;0.10;0.10;;;13.00;97.70;;;;;;5019891;28;20046;-64
2023/04/27 12:52:59;;;;;;;0.03;0.03;;;12.90;97.20;;;;;;5025369;28;20084;-64